createdAt,value
2019-03-20T00:00:25.271Z,82.90
2019-03-20T00:02:54.269Z,82.90
2019-03-20T00:05:22.877Z,82.90
2019-03-20T00:07:51.452Z,83.10
2019-03-20T00:10:20.609Z,83.10
2019-03-20T00:12:49.263Z,83.20
2019-03-20T00:15:18.033Z,83.20
2019-03-20T00:17:46.633Z,83.30
2019-03-20T00:20:15.674Z,83.40
2019-03-20T00:22:45.283Z,83.20
2019-03-20T00:25:14.112Z,83.50
2019-03-20T00:27:42.783Z,83.80
2019-03-20T00:30:16.750Z,84.00
2019-03-20T00:32:45.578Z,84.10
2019-03-20T00:35:14.476Z,84.20
2019-03-20T00:37:43.047Z,84.40
2019-03-20T00:40:15.956Z,84.70
2019-03-20T00:42:44.691Z,84.90
2019-03-20T00:45:14.902Z,85.00
2019-03-20T00:47:43.484Z,85.20
2019-03-20T00:50:14.426Z,85.40
2019-03-20T00:52:43.110Z,85.60
2019-03-20T00:55:13.220Z,85.80
2019-03-20T00:57:41.893Z,85.90
2019-03-20T01:00:13.775Z,86.10
2019-03-20T01:02:42.340Z,86.20
2019-03-20T01:05:12.803Z,86.30
2019-03-20T01:07:41.746Z,86.50
2019-03-20T01:10:13.520Z,86.50
2019-03-20T01:12:42.132Z,86.60
2019-03-20T01:15:12.939Z,86.60
2019-03-20T01:17:41.881Z,86.70
2019-03-20T01:20:13.630Z,86.80
2019-03-20T01:22:42.205Z,86.90
2019-03-20T01:25:11.353Z,87.10
2019-03-20T01:27:40.014Z,87.10
2019-03-20T01:30:13.173Z,87.10
2019-03-20T01:32:41.826Z,87.30
2019-03-20T01:35:10.550Z,87.60
2019-03-20T01:37:39.180Z,87.40
2019-03-20T01:40:08.404Z,87.50
2019-03-20T01:42:36.983Z,87.60
2019-03-20T01:45:06.777Z,87.70
2019-03-20T01:47:35.330Z,87.90
2019-03-20T01:50:05.840Z,88.10
2019-03-20T01:52:35.523Z,88.30
2019-03-20T01:55:05.898Z,88.40
2019-03-20T01:57:34.531Z,88.50
2019-03-20T02:00:04.642Z,88.40
2019-03-20T02:02:33.626Z,88.20
2019-03-20T02:05:02.186Z,88.10
2019-03-20T02:07:32.711Z,88.00
2019-03-20T02:10:01.312Z,87.90
2019-03-20T02:12:29.892Z,87.90
2019-03-20T02:14:58.477Z,87.80
2019-03-20T02:17:28.094Z,87.80
2019-03-20T02:19:56.661Z,87.90
2019-03-20T02:22:26.210Z,88.00
2019-03-20T02:24:54.778Z,87.90
2019-03-20T02:27:23.407Z,88.10
2019-03-20T02:29:51.997Z,87.90
2019-03-20T02:32:22.476Z,87.90
2019-03-20T02:34:51.070Z,87.90
2019-03-20T02:37:19.653Z,88.00
2019-03-20T02:39:48.216Z,88.00
2019-03-20T02:42:16.818Z,88.00
2019-03-20T02:44:45.398Z,88.10
2019-03-20T02:47:13.975Z,88.20
2019-03-20T02:49:42.585Z,88.50
2019-03-20T02:52:12.141Z,88.60
2019-03-20T02:54:41.807Z,88.70
2019-03-20T02:57:11.467Z,88.80
2019-03-20T02:59:40.055Z,89.10
2019-03-20T03:02:08.735Z,89.20
2019-03-20T03:04:37.371Z,89.40
2019-03-20T03:07:06.055Z,89.40
2019-03-20T03:09:35.640Z,89.40
2019-03-20T03:12:04.276Z,89.30
2019-03-20T03:14:32.876Z,89.40
2019-03-20T03:17:01.455Z,89.50
2019-03-20T03:19:30.073Z,89.40
2019-03-20T03:21:58.655Z,89.30
2019-03-20T03:24:27.227Z,89.10
2019-03-20T03:26:55.981Z,88.90
2019-03-20T03:29:24.510Z,88.80
2019-03-20T03:31:53.065Z,88.60
2019-03-20T03:34:22.586Z,88.50
2019-03-20T03:36:51.143Z,88.30
2019-03-20T03:39:19.724Z,88.20
2019-03-20T03:41:48.299Z,88.40
2019-03-20T03:44:16.916Z,88.50
2019-03-20T03:46:45.537Z,88.60
2019-03-20T03:49:16.004Z,88.50
2019-03-20T03:51:44.588Z,88.20
2019-03-20T03:54:14.100Z,88.10
2019-03-20T03:56:42.681Z,88.00
2019-03-20T03:59:11.309Z,87.80
2019-03-20T04:01:39.882Z,87.90
2019-03-20T04:04:09.840Z,88.00
2019-03-20T04:06:38.426Z,88.10
2019-03-20T04:09:07.459Z,88.30
2019-03-20T04:11:36.105Z,88.50
2019-03-20T04:14:04.746Z,88.60
2019-03-20T04:16:33.348Z,88.70
2019-03-20T04:19:02.905Z,88.90
2019-03-20T04:21:31.481Z,89.20
2019-03-20T04:24:00.104Z,89.40
2019-03-20T04:26:28.663Z,89.70
2019-03-20T04:28:57.230Z,89.80
2019-03-20T04:31:25.836Z,90.00
2019-03-20T04:33:57.547Z,90.10
2019-03-20T04:36:24.679Z,90.20
2019-03-20T04:38:53.292Z,90.30
2019-03-20T04:41:21.894Z,90.30
2019-03-20T04:43:50.458Z,90.50
2019-03-20T04:46:22.487Z,90.50
2019-03-20T04:48:51.139Z,90.70
2019-03-20T04:51:19.715Z,90.60
2019-03-20T04:53:48.324Z,90.60
2019-03-20T04:56:16.935Z,90.70
2019-03-20T04:58:45.527Z,90.80
2019-03-20T05:01:14.090Z,90.80
2019-03-20T05:03:42.681Z,90.90
2019-03-20T05:06:12.578Z,91.00
2019-03-20T05:08:41.202Z,91.10
2019-03-20T05:11:09.798Z,91.00
2019-03-20T05:13:38.359Z,91.10
2019-03-20T05:16:06.967Z,91.10
2019-03-20T05:18:36.743Z,91.20
2019-03-20T05:21:06.245Z,91.10
2019-03-20T05:23:34.913Z,91.20
2019-03-20T05:26:03.517Z,91.50
2019-03-20T05:28:32.128Z,91.20
2019-03-20T05:31:01.606Z,91.20
2019-03-20T05:33:30.235Z,91.10
2019-03-20T05:35:58.802Z,91.10
2019-03-20T05:38:27.385Z,91.10
2019-03-20T05:40:56.900Z,91.00
2019-03-20T05:43:25.463Z,91.00
2019-03-20T05:45:54.040Z,90.90
2019-03-20T05:48:22.686Z,90.90
2019-03-20T05:50:51.238Z,90.90
2019-03-20T05:53:20.796Z,90.90
2019-03-20T05:55:49.409Z,90.80
2019-03-20T05:58:19.046Z,90.70
2019-03-20T06:00:47.629Z,90.70
2019-03-20T06:03:16.627Z,90.60
2019-03-20T06:05:46.241Z,90.50
2019-03-20T06:08:15.769Z,90.40
2019-03-20T06:10:44.400Z,90.40
2019-03-20T06:13:12.974Z,90.70
2019-03-20T06:15:41.540Z,90.20
2019-03-20T06:18:13.524Z,90.10
2019-03-20T06:20:42.208Z,90.30
2019-03-20T06:23:16.586Z,91.30
2019-03-20T06:25:46.081Z,90.80
2019-03-20T06:28:14.744Z,87.30
2019-03-20T06:30:43.290Z,81.10
2019-03-20T06:33:11.886Z,75.60
2019-03-20T06:35:40.460Z,71.40
2019-03-20T06:38:09.048Z,67.20
2019-03-20T06:40:37.623Z,64.10
2019-03-20T06:43:07.543Z,60.20
2019-03-20T06:45:36.137Z,57.70
2019-03-20T06:48:04.793Z,55.50
2019-03-20T06:50:34.273Z,53.40
2019-03-20T06:53:02.880Z,52.50
2019-03-20T06:55:31.920Z,50.60
2019-03-20T06:58:01.592Z,49.10
2019-03-20T07:00:39.984Z,47.80
2019-03-20T07:03:14.269Z,45.90
2019-03-20T07:05:51.673Z,44.00
2019-03-20T07:08:23.395Z,42.60
2019-03-20T07:11:03.908Z,41.50
2019-03-20T07:13:34.466Z,40.60
2019-03-20T07:16:03.208Z,39.60
2019-03-20T07:18:31.801Z,39.10
2019-03-20T07:21:00.444Z,37.70
2019-03-20T07:23:29.014Z,36.00
2019-03-20T07:25:57.592Z,35.50
2019-03-20T07:28:26.182Z,34.40
2019-03-20T07:30:54.752Z,33.10
2019-03-20T07:33:23.350Z,32.40
2019-03-20T07:35:52.248Z,31.70
2019-03-20T07:38:20.900Z,30.70
2019-03-20T07:40:49.468Z,30.60
2019-03-20T07:43:18.105Z,29.70
2019-03-20T07:45:46.669Z,28.40
2019-03-20T07:48:22.205Z,28.00
2019-03-20T07:50:45.491Z,27.90
2019-03-20T07:53:14.390Z,27.30
2019-03-20T07:55:42.965Z,27.10
2019-03-20T07:58:11.597Z,26.70
2019-03-20T08:00:42.195Z,26.10
2019-03-20T08:03:10.783Z,25.60
2019-03-20T08:05:39.736Z,25.70
2019-03-20T08:08:08.313Z,25.10
2019-03-20T08:10:37.159Z,24.90
2019-03-20T08:13:06.369Z,23.30
2019-03-20T08:15:34.952Z,25.40
2019-03-20T08:18:04.262Z,25.50
2019-03-20T08:20:32.832Z,25.10
2019-03-20T08:23:02.425Z,24.60
2019-03-20T08:25:31.072Z,22.30
2019-03-20T08:27:59.606Z,23.70
2019-03-20T08:30:28.248Z,24.10
2019-03-20T08:32:56.833Z,22.80
2019-03-20T08:35:25.472Z,22.70
2019-03-20T08:37:54.109Z,22.10
2019-03-20T08:40:22.670Z,21.10
2019-03-20T08:42:51.296Z,20.10
2019-03-20T08:45:19.997Z,21.10
2019-03-20T08:47:48.554Z,20.70
2019-03-20T08:50:19.656Z,20.40
2019-03-20T08:52:48.295Z,20.00
2019-03-20T08:55:18.970Z,19.80
2019-03-20T08:57:47.692Z,18.80
2019-03-20T09:00:20.238Z,19.00
2019-03-20T09:02:48.882Z,18.70
2019-03-20T09:05:17.628Z,18.50
2019-03-20T09:07:47.828Z,18.40
2019-03-20T09:10:18.559Z,17.80
2019-03-20T09:12:47.176Z,17.60
2019-03-20T09:15:19.373Z,17.60
2019-03-20T09:17:48.015Z,17.00
2019-03-20T09:20:22.956Z,17.30
2019-03-20T09:22:51.573Z,16.50
2019-03-20T09:25:26.744Z,17.80
2019-03-20T09:27:55.433Z,18.00
2019-03-20T09:30:27.942Z,18.40
2019-03-20T09:32:56.611Z,18.50
2019-03-20T09:35:25.266Z,18.40
2019-03-20T09:37:53.825Z,18.50
2019-03-20T09:40:26.907Z,18.80
2019-03-20T09:42:55.519Z,18.80
2019-03-20T09:45:24.962Z,18.70
2019-03-20T09:47:53.676Z,18.30
2019-03-20T09:50:25.981Z,18.10
2019-03-20T09:52:55.537Z,18.40
2019-03-20T09:55:24.176Z,18.60
2019-03-20T09:57:52.831Z,18.30
2019-03-20T10:00:26.079Z,18.70
2019-03-20T10:02:54.661Z,18.90
2019-03-20T10:05:24.007Z,19.00
2019-03-20T10:07:53.624Z,19.80
2019-03-20T10:10:31.961Z,19.60
2019-03-20T10:13:00.559Z,19.30
2019-03-20T10:15:30.325Z,20.30
2019-03-20T10:17:58.968Z,21.90
2019-03-20T10:20:27.610Z,23.30
2019-03-20T10:22:56.407Z,24.80
2019-03-20T10:25:25.107Z,26.00
2019-03-20T10:27:53.678Z,26.90
2019-03-20T10:30:27.419Z,27.50
2019-03-20T10:32:56.335Z,28.70
2019-03-20T10:35:24.973Z,29.20
2019-03-20T10:37:53.927Z,29.90
2019-03-20T10:40:27.317Z,29.70
2019-03-20T10:42:56.021Z,30.00
2019-03-20T10:45:24.806Z,30.80
2019-03-20T10:47:53.569Z,31.40
2019-03-20T10:50:29.383Z,31.40
2019-03-20T10:52:58.061Z,31.50
2019-03-20T10:55:26.641Z,32.10
2019-03-20T10:57:55.290Z,31.90
2019-03-20T11:00:24.929Z,32.50
2019-03-20T11:02:53.510Z,33.00
2019-03-20T11:05:22.248Z,33.40
2019-03-20T11:07:50.846Z,33.70
2019-03-20T11:10:24.679Z,34.50
2019-03-20T11:12:53.383Z,34.00
2019-03-20T11:15:22.777Z,34.40
2019-03-20T11:17:51.547Z,34.30
2019-03-20T11:20:22.118Z,34.30
2019-03-20T11:22:50.752Z,34.50
2019-03-20T11:25:21.101Z,34.50
2019-03-20T11:27:50.118Z,35.20
2019-03-20T11:30:28.739Z,35.50
2019-03-20T11:32:57.544Z,35.30
2019-03-20T11:35:26.633Z,35.80
2019-03-20T11:37:55.306Z,36.30
2019-03-20T11:40:32.308Z,36.80
2019-03-20T11:43:00.929Z,37.10
2019-03-20T11:45:29.989Z,37.30
2019-03-20T11:47:58.554Z,37.30
2019-03-20T11:50:38.056Z,36.80
2019-03-20T11:53:07.876Z,37.10
2019-03-20T11:55:37.297Z,37.20
2019-03-20T11:58:06.841Z,37.70
2019-03-20T12:00:35.759Z,37.80
2019-03-20T12:03:05.091Z,37.90
2019-03-20T12:05:33.784Z,37.80
2019-03-20T12:08:02.770Z,38.10
2019-03-20T12:10:34.788Z,38.60
2019-03-20T12:13:03.516Z,39.20
2019-03-20T12:15:32.218Z,39.30
2019-03-20T12:18:00.804Z,39.50
2019-03-20T12:20:29.383Z,39.40
2019-03-20T12:22:58.045Z,39.40
2019-03-20T12:25:28.971Z,39.50
2019-03-20T12:27:57.654Z,39.60
2019-03-20T12:30:28.851Z,39.70
2019-03-20T12:32:57.596Z,39.70
2019-03-20T12:35:36.688Z,40.00
2019-03-20T12:38:14.164Z,39.70
2019-03-20T12:40:36.689Z,39.90
2019-03-20T12:43:06.222Z,40.30
2019-03-20T12:45:38.624Z,40.70
2019-03-20T12:48:11.619Z,40.80
2019-03-20T12:50:40.237Z,40.10
2019-03-20T12:53:11.681Z,40.00
2019-03-20T12:55:40.250Z,40.00
2019-03-20T12:58:08.858Z,39.90
2019-03-20T13:00:37.498Z,39.60
2019-03-20T13:03:06.142Z,39.20
2019-03-20T13:05:34.817Z,38.80
2019-03-20T13:08:06.043Z,39.20
2019-03-20T13:10:33.592Z,39.60
2019-03-20T13:13:02.307Z,39.90
2019-03-20T13:15:32.528Z,40.20
2019-03-20T13:18:01.073Z,40.30
2019-03-20T13:20:29.696Z,40.30
2019-03-20T13:23:22.177Z,40.50
2019-03-20T13:25:51.220Z,41.00
2019-03-20T13:28:19.754Z,41.30
2019-03-20T13:30:58.398Z,41.30
2019-03-20T13:33:27.031Z,40.80
2019-03-20T13:35:55.611Z,40.90
2019-03-20T13:38:24.232Z,40.60
2019-03-20T13:40:52.847Z,40.50
2019-03-20T13:43:21.493Z,40.10
2019-03-20T13:45:50.108Z,40.40
2019-03-20T13:48:18.692Z,40.20
2019-03-20T13:50:47.374Z,40.60
2019-03-20T13:53:15.966Z,41.00
2019-03-20T13:55:44.610Z,41.30
2019-03-20T13:58:13.211Z,41.40
2019-03-20T14:00:42.684Z,41.00
2019-03-20T14:03:11.272Z,40.90
2019-03-20T14:05:39.863Z,41.00
2019-03-20T14:08:08.442Z,41.00
2019-03-20T14:10:49.672Z,41.00
2019-03-20T14:13:07.385Z,41.30
2019-03-20T14:15:36.013Z,41.60
2019-03-20T14:18:05.011Z,41.90
2019-03-20T14:20:33.841Z,42.20
2019-03-20T14:23:02.522Z,42.40
2019-03-20T14:25:32.226Z,42.40
2019-03-20T14:28:00.796Z,42.10
2019-03-20T14:30:33.340Z,41.70
2019-03-20T14:33:01.129Z,41.80
2019-03-20T14:35:30.251Z,42.20
2019-03-20T14:37:58.857Z,42.30
2019-03-20T14:40:36.225Z,42.60
2019-03-20T14:42:59.885Z,42.90
2019-03-20T14:45:28.646Z,42.90
2019-03-20T14:47:57.294Z,43.00
2019-03-20T14:50:28.188Z,43.00
2019-03-20T14:52:56.853Z,43.20
2019-03-20T14:55:25.896Z,43.30
2019-03-20T14:57:54.465Z,43.40
2019-03-20T15:00:30.141Z,43.30
2019-03-20T15:02:59.174Z,44.10
2019-03-20T15:05:27.945Z,43.60
2019-03-20T15:07:56.522Z,43.80
2019-03-20T15:10:27.197Z,43.90
2019-03-20T15:12:56.541Z,44.00
2019-03-20T15:15:39.985Z,44.30
2019-03-20T15:18:08.608Z,44.40
2019-03-20T15:20:37.234Z,44.40
2019-03-20T15:23:05.812Z,44.60
2019-03-20T15:25:34.395Z,44.60
2019-03-20T15:28:02.968Z,44.70
2019-03-20T15:30:31.524Z,44.70
2019-03-20T15:33:00.152Z,44.70
2019-03-20T15:35:28.711Z,44.70
2019-03-20T15:37:57.355Z,44.80
2019-03-20T15:40:27.059Z,45.70
2019-03-20T15:42:55.728Z,45.00
2019-03-20T15:45:24.296Z,45.10
2019-03-20T15:47:52.864Z,45.20
2019-03-20T15:50:23.737Z,45.30
2019-03-20T15:52:52.480Z,45.60
2019-03-20T15:55:34.502Z,45.60
2019-03-20T15:58:03.078Z,45.80
2019-03-20T16:00:31.788Z,45.80
2019-03-20T16:03:11.829Z,45.90
2019-03-20T16:05:40.525Z,46.10
2019-03-20T16:08:09.095Z,46.40
2019-03-20T16:10:37.755Z,46.70
2019-03-20T16:13:06.510Z,47.00
2019-03-20T16:15:35.172Z,47.40
2019-03-20T16:18:03.912Z,47.40
2019-03-20T16:20:32.478Z,47.70
2019-03-20T16:23:01.135Z,48.10
2019-03-20T16:25:29.723Z,48.30
2019-03-20T16:27:58.379Z,48.50
2019-03-20T16:30:33.915Z,48.70
2019-03-20T16:33:02.937Z,48.80
2019-03-20T16:35:31.862Z,48.80
2019-03-20T16:38:00.507Z,48.90
2019-03-20T16:40:30.978Z,48.90
2019-03-20T16:42:59.524Z,49.00
2019-03-20T16:45:32.175Z,49.10
2019-03-20T16:48:01.031Z,49.20
2019-03-20T16:50:29.681Z,49.30
2019-03-20T16:52:58.561Z,49.50
2019-03-20T16:55:27.203Z,49.60
2019-03-20T16:57:55.850Z,49.80
2019-03-20T17:00:26.741Z,50.10
2019-03-20T17:02:55.754Z,50.10
2019-03-20T17:05:24.903Z,50.30
2019-03-20T17:07:53.467Z,50.40
2019-03-20T17:10:33.675Z,50.40
2019-03-20T17:13:02.630Z,50.40
2019-03-20T17:15:33.372Z,50.30
2019-03-20T17:18:01.981Z,50.30
2019-03-20T17:20:30.660Z,50.60
2019-03-20T17:22:59.371Z,50.60
2019-03-20T17:25:28.113Z,50.70
2019-03-20T17:27:56.764Z,50.70
2019-03-20T17:30:30.605Z,50.70
2019-03-20T17:32:59.392Z,50.60
2019-03-20T17:35:27.964Z,50.60
2019-03-20T17:37:56.936Z,50.50
2019-03-20T17:40:27.000Z,50.40
2019-03-20T17:42:55.629Z,50.40
2019-03-20T17:45:26.133Z,50.40
2019-03-20T17:47:56.981Z,50.40
2019-03-20T17:50:30.492Z,50.30
2019-03-20T17:52:59.219Z,50.50
2019-03-20T17:55:28.346Z,50.70
2019-03-20T17:57:57.011Z,50.80
2019-03-20T18:00:50.287Z,51.00
2019-03-20T18:03:18.892Z,51.20
2019-03-20T18:05:47.467Z,51.50
2019-03-20T18:08:16.041Z,52.60
2019-03-20T18:10:44.637Z,51.80
2019-03-20T18:13:13.213Z,51.90
2019-03-20T18:15:41.816Z,51.90
2019-03-20T18:18:10.477Z,51.80
2019-03-20T18:20:39.088Z,51.70
2019-03-20T18:23:08.309Z,51.70
2019-03-20T18:25:36.970Z,51.50
2019-03-20T18:28:06.133Z,51.40
2019-03-20T18:30:39.843Z,51.40
2019-03-20T18:33:08.474Z,51.20
2019-03-20T18:35:37.044Z,51.20
2019-03-20T18:38:06.564Z,51.10
2019-03-20T18:40:35.137Z,51.00
2019-03-20T18:43:03.857Z,50.80
2019-03-20T18:45:32.534Z,50.70
2019-03-20T18:48:01.549Z,50.80
2019-03-20T18:50:30.178Z,50.80
2019-03-20T18:52:58.762Z,50.70
2019-03-20T18:55:27.626Z,50.80
2019-03-20T18:57:56.261Z,50.90
2019-03-20T19:00:29.259Z,50.90
2019-03-20T19:03:06.822Z,50.90
2019-03-20T19:05:41.345Z,51.00
2019-03-20T19:08:11.038Z,51.20
2019-03-20T19:10:39.749Z,51.40
2019-03-20T19:13:08.424Z,51.80
2019-03-20T19:15:37.141Z,51.90
2019-03-20T19:18:05.727Z,52.10
2019-03-20T19:20:34.352Z,52.20
2019-03-20T19:23:02.973Z,52.10
2019-03-20T19:25:31.567Z,52.10
2019-03-20T19:28:00.147Z,52.00
2019-03-20T19:30:28.728Z,51.90
2019-03-20T19:32:57.457Z,51.80
2019-03-20T19:35:26.041Z,51.90
2019-03-20T19:37:54.633Z,52.00
2019-03-20T19:40:23.436Z,52.10
2019-03-20T19:42:52.005Z,52.20
2019-03-20T19:45:21.499Z,52.80
2019-03-20T19:47:50.203Z,52.10
2019-03-20T19:50:20.315Z,52.00
2019-03-20T19:52:48.891Z,51.80
2019-03-20T19:55:18.158Z,51.90
2019-03-20T19:57:46.756Z,51.90
2019-03-20T20:00:17.250Z,51.80
2019-03-20T20:02:46.993Z,51.70
2019-03-20T20:05:16.393Z,51.60
2019-03-20T20:07:45.032Z,51.70
2019-03-20T20:10:18.607Z,51.70
2019-03-20T20:12:47.263Z,51.70
2019-03-20T20:15:26.434Z,51.70
2019-03-20T20:17:56.022Z,51.70
2019-03-20T20:20:26.870Z,51.60
2019-03-20T20:22:55.443Z,51.60
2019-03-20T20:25:24.004Z,51.50
2019-03-20T20:27:52.628Z,51.50
2019-03-20T20:30:21.279Z,51.30
2019-03-20T20:32:49.842Z,51.20
2019-03-20T20:35:18.498Z,51.20
2019-03-20T20:37:47.992Z,51.10
2019-03-20T20:40:22.091Z,51.00
2019-03-20T20:42:50.726Z,50.90
2019-03-20T20:45:19.373Z,50.80
2019-03-20T20:47:48.142Z,50.90
2019-03-20T20:50:17.582Z,50.80
2019-03-20T20:52:46.485Z,50.70
2019-03-20T20:55:19.511Z,50.70
2019-03-20T20:57:48.218Z,50.70
2019-03-20T21:00:27.314Z,50.80
2019-03-20T21:02:56.004Z,50.80
2019-03-20T21:05:24.950Z,50.90
2019-03-20T21:07:53.646Z,51.00
2019-03-20T21:10:26.226Z,51.00
2019-03-20T21:12:57.331Z,51.00
2019-03-20T21:15:35.778Z,51.00
2019-03-20T21:18:16.708Z,51.20
2019-03-20T21:20:47.204Z,51.20
2019-03-20T21:23:38.494Z,51.20
2019-03-20T21:26:28.685Z,51.30
2019-03-20T21:29:16.659Z,51.40
2019-03-20T21:32:04.880Z,51.40
2019-03-20T21:34:39.413Z,51.50
2019-03-20T21:37:29.169Z,51.50
2019-03-20T21:39:57.793Z,51.60
2019-03-20T21:42:52.181Z,51.60
2019-03-20T21:45:26.856Z,51.70
2019-03-20T21:47:55.426Z,51.70
2019-03-20T21:50:49.740Z,51.90
2019-03-20T21:53:24.310Z,51.90
2019-03-20T21:56:18.485Z,52.00
2019-03-20T21:58:53.349Z,51.90
2019-03-20T22:01:47.565Z,52.00
2019-03-20T22:04:16.174Z,52.10
2019-03-20T22:07:04.132Z,52.20
2019-03-20T22:09:41.982Z,52.20
2019-03-20T22:12:16.280Z,52.30
2019-03-20T22:14:48.059Z,52.40
2019-03-20T22:17:52.912Z,52.60
2019-03-20T22:20:24.552Z,52.80
2019-03-20T22:23:16.026Z,52.90
2019-03-20T22:25:55.491Z,53.10
2019-03-20T22:28:45.049Z,53.10
2019-03-20T22:31:13.691Z,53.30
2019-03-20T22:34:20.793Z,53.30
2019-03-20T22:36:49.368Z,53.50
2019-03-20T22:39:54.454Z,53.50
2019-03-20T22:42:34.855Z,53.60
2019-03-20T22:45:21.621Z,53.80
2019-03-20T22:47:55.919Z,53.80
2019-03-20T22:50:33.168Z,53.80
2019-03-20T22:53:32.365Z,53.80
2019-03-20T22:56:06.674Z,53.70
2019-03-20T22:58:47.475Z,53.70
2019-03-20T23:01:34.059Z,53.80
2019-03-20T23:04:06.216Z,53.80
2019-03-20T23:06:34.793Z,53.90
2019-03-20T23:09:05.240Z,53.90
2019-03-20T23:11:33.922Z,53.90
2019-03-20T23:14:04.137Z,53.90
2019-03-20T23:16:32.716Z,53.90
2019-03-20T23:19:01.302Z,53.90
2019-03-20T23:21:29.978Z,53.80
2019-03-20T23:23:58.669Z,53.80
2019-03-20T23:26:27.242Z,53.80
2019-03-20T23:28:55.801Z,53.70
2019-03-20T23:31:24.386Z,53.70
2019-03-20T23:33:52.964Z,53.80
2019-03-20T23:36:22.486Z,53.80
2019-03-20T23:38:51.095Z,53.70
2019-03-20T23:41:20.640Z,53.60
2019-03-20T23:43:53.147Z,53.60
2019-03-20T23:46:20.092Z,53.50
2019-03-20T23:49:04.457Z,53.50
2019-03-20T23:51:35.242Z,53.40
2019-03-20T23:54:04.126Z,53.30
2019-03-20T23:56:36.079Z,53.30
2019-03-20T23:59:05.780Z,53.30
